sensor_id;sensor_type;location;lat;lon;timestamp;P1;durP1;ratioP1;P2;durP2;ratioP2
67768;SDS011;54569;52.018;5.584;2023-06-10T00:00:12;8.40;;;7.53;;
67768;SDS011;54569;52.018;5.584;2023-06-10T00:02:41;8.60;;;7.35;;
67768;SDS011;54569;52.018;5.584;2023-06-10T00:05:09;7.35;;;6.65;;
67768;SDS011;54569;52.018;5.584;2023-06-10T00:07:34;8.05;;;7.32;;
67768;SDS011;54569;52.018;5.584;2023-06-10T00:10:04;7.43;;;6.70;;
67768;SDS011;54569;52.018;5.584;2023-06-10T00:12:31;10.27;;;7.32;;
67768;SDS011;54569;52.018;5.584;2023-06-10T00:15:02;8.73;;;7.18;;
67768;SDS011;54569;52.018;5.584;2023-06-10T00:17:29;7.55;;;6.90;;
67768;SDS011;54569;52.018;5.584;2023-06-10T00:19:55;8.00;;;7.20;;
67768;SDS011;54569;52.018;5.584;2023-06-10T00:22:22;7.20;;;6.60;;
67768;SDS011;54569;52.018;5.584;2023-06-10T00:24:49;7.70;;;7.00;;
67768;SDS011;54569;52.018;5.584;2023-06-10T00:27:16;7.10;;;6.40;;
67768;SDS011;54569;52.018;5.584;2023-06-10T00:29:41;7.43;;;6.72;;
67768;SDS011;54569;52.018;5.584;2023-06-10T00:32:07;8.25;;;6.43;;
67768;SDS011;54569;52.018;5.584;2023-06-10T00:34:34;9.13;;;7.05;;
67768;SDS011;54569;52.018;5.584;2023-06-10T00:37:00;7.72;;;6.40;;
67768;SDS011;54569;52.018;5.584;2023-06-10T00:39:26;7.47;;;6.88;;
67768;SDS011;54569;52.018;5.584;2023-06-10T00:41:52;8.40;;;6.75;;
67768;SDS011;54569;52.018;5.584;2023-06-10T00:44:17;12.05;;;6.60;;
67768;SDS011;54569;52.018;5.584;2023-06-10T00:46:43;9.93;;;6.47;;
67768;SDS011;54569;52.018;5.584;2023-06-10T00:49:09;9.40;;;6.30;;
67768;SDS011;54569;52.018;5.584;2023-06-10T00:51:36;7.28;;;6.57;;
67768;SDS011;54569;52.018;5.584;2023-06-10T00:54:02;7.40;;;6.70;;
67768;SDS011;54569;52.018;5.584;2023-06-10T00:56:28;6.50;;;5.90;;
67768;SDS011;54569;52.018;5.584;2023-06-10T00:58:54;6.57;;;5.70;;
67768;SDS011;54569;52.018;5.584;2023-06-10T01:01:20;6.80;;;6.13;;
67768;SDS011;54569;52.018;5.584;2023-06-10T01:03:46;7.45;;;6.68;;
67768;SDS011;54569;52.018;5.584;2023-06-10T01:09:21;7.15;;;6.13;;
67768;SDS011;54569;52.018;5.584;2023-06-10T01:12:43;6.95;;;6.22;;
67768;SDS011;54569;52.018;5.584;2023-06-10T01:14:55;6.72;;;6.03;;
67768;SDS011;54569;52.018;5.584;2023-06-10T01:17:22;8.13;;;6.47;;
67768;SDS011;54569;52.018;5.584;2023-06-10T01:19:55;6.43;;;5.82;;
67768;SDS011;54569;52.018;5.584;2023-06-10T01:22:25;7.97;;;6.32;;
67768;SDS011;54569;52.018;5.584;2023-06-10T01:24:57;8.65;;;6.20;;
67768;SDS011;54569;52.018;5.584;2023-06-10T01:27:25;8.00;;;6.40;;
67768;SDS011;54569;52.018;5.584;2023-06-10T01:30:36;8.38;;;6.72;;
67768;SDS011;54569;52.018;5.584;2023-06-10T01:32:55;9.05;;;6.55;;
67768;SDS011;54569;52.018;5.584;2023-06-10T01:35:24;7.97;;;6.20;;
67768;SDS011;54569;52.018;5.584;2023-06-10T01:37:51;6.65;;;5.75;;
67768;SDS011;54569;52.018;5.584;2023-06-10T01:40:20;6.28;;;5.75;;
67768;SDS011;54569;52.018;5.584;2023-06-10T01:42:49;6.82;;;6.22;;
67768;SDS011;54569;52.018;5.584;2023-06-10T01:45:15;6.57;;;5.93;;
67768;SDS011;54569;52.018;5.584;2023-06-10T01:47:40;8.60;;;6.03;;
67768;SDS011;54569;52.018;5.584;2023-06-10T01:50:06;7.32;;;6.43;;
67768;SDS011;54569;52.018;5.584;2023-06-10T01:52:34;6.57;;;5.78;;
67768;SDS011;54569;52.018;5.584;2023-06-10T01:55:00;7.63;;;6.00;;
67768;SDS011;54569;52.018;5.584;2023-06-10T01:57:26;6.85;;;5.85;;
67768;SDS011;54569;52.018;5.584;2023-06-10T01:59:52;7.75;;;6.07;;
67768;SDS011;54569;52.018;5.584;2023-06-10T02:02:17;7.38;;;6.25;;
67768;SDS011;54569;52.018;5.584;2023-06-10T02:04:43;7.05;;;5.97;;
67768;SDS011;54569;52.018;5.584;2023-06-10T02:07:09;6.97;;;6.20;;
67768;SDS011;54569;52.018;5.584;2023-06-10T02:09:35;5.82;;;5.18;;
67768;SDS011;54569;52.018;5.584;2023-06-10T02:12:04;7.75;;;6.60;;
67768;SDS011;54569;52.018;5.584;2023-06-10T02:14:33;5.82;;;5.22;;
67768;SDS011;54569;52.018;5.584;2023-06-10T02:16:58;6.47;;;5.20;;
67768;SDS011;54569;52.018;5.584;2023-06-10T02:19:25;6.22;;;5.45;;
67768;SDS011;54569;52.018;5.584;2023-06-10T02:21:51;8.73;;;5.47;;
67768;SDS011;54569;52.018;5.584;2023-06-10T02:24:17;6.10;;;5.43;;
67768;SDS011;54569;52.018;5.584;2023-06-10T02:26:43;6.63;;;5.93;;
67768;SDS011;54569;52.018;5.584;2023-06-10T02:29:09;7.18;;;5.60;;
67768;SDS011;54569;52.018;5.584;2023-06-10T02:31:35;6.53;;;5.65;;
67768;SDS011;54569;52.018;5.584;2023-06-10T02:34:02;7.75;;;6.53;;
67768;SDS011;54569;52.018;5.584;2023-06-10T02:36:29;6.13;;;5.50;;
67768;SDS011;54569;52.018;5.584;2023-06-10T02:38:55;6.45;;;5.88;;
67768;SDS011;54569;52.018;5.584;2023-06-10T02:41:21;7.50;;;5.72;;
67768;SDS011;54569;52.018;5.584;2023-06-10T02:43:49;6.05;;;5.45;;
67768;SDS011;54569;52.018;5.584;2023-06-10T02:46:15;6.47;;;5.88;;
67768;SDS011;54569;52.018;5.584;2023-06-10T02:48:42;7.28;;;5.95;;
67768;SDS011;54569;52.018;5.584;2023-06-10T02:51:14;6.28;;;5.63;;
67768;SDS011;54569;52.018;5.584;2023-06-10T02:53:43;7.40;;;5.65;;
67768;SDS011;54569;52.018;5.584;2023-06-10T02:56:11;7.15;;;5.60;;
67768;SDS011;54569;52.018;5.584;2023-06-10T02:58:38;7.10;;;5.80;;
67768;SDS011;54569;52.018;5.584;2023-06-10T03:01:05;6.63;;;5.57;;
67768;SDS011;54569;52.018;5.584;2023-06-10T03:03:40;6.28;;;5.68;;
67768;SDS011;54569;52.018;5.584;2023-06-10T03:06:10;8.52;;;5.90;;
67768;SDS011;54569;52.018;5.584;2023-06-10T03:08:36;7.88;;;5.68;;
67768;SDS011;54569;52.018;5.584;2023-06-10T03:11:07;6.47;;;5.55;;
67768;SDS011;54569;52.018;5.584;2023-06-10T03:13:34;7.85;;;5.43;;
67768;SDS011;54569;52.018;5.584;2023-06-10T03:16:01;9.35;;;5.43;;
67768;SDS011;54569;52.018;5.584;2023-06-10T03:18:29;9.18;;;5.88;;
67768;SDS011;54569;52.018;5.584;2023-06-10T03:20:54;9.07;;;5.50;;
67768;SDS011;54569;52.018;5.584;2023-06-10T03:23:22;7.43;;;5.97;;
67768;SDS011;54569;52.018;5.584;2023-06-10T03:25:48;6.20;;;5.60;;
67768;SDS011;54569;52.018;5.584;2023-06-10T03:28:17;8.15;;;6.00;;
67768;SDS011;54569;52.018;5.584;2023-06-10T03:30:43;7.80;;;5.60;;
67768;SDS011;54569;52.018;5.584;2023-06-10T03:33:09;6.60;;;5.90;;
67768;SDS011;54569;52.018;5.584;2023-06-10T03:35:36;7.10;;;5.80;;
67768;SDS011;54569;52.018;5.584;2023-06-10T03:38:04;7.25;;;5.85;;
67768;SDS011;54569;52.018;5.584;2023-06-10T03:40:30;6.20;;;5.60;;
67768;SDS011;54569;52.018;5.584;2023-06-10T03:42:57;10.98;;;5.40;;
67768;SDS011;54569;52.018;5.584;2023-06-10T03:45:23;7.00;;;6.30;;
67768;SDS011;54569;52.018;5.584;2023-06-10T03:47:50;7.18;;;5.47;;
67768;SDS011;54569;52.018;5.584;2023-06-10T03:50:20;5.75;;;5.20;;
67768;SDS011;54569;52.018;5.584;2023-06-10T03:52:48;8.02;;;5.20;;
67768;SDS011;54569;52.018;5.584;2023-06-10T03:55:15;6.70;;;5.47;;
67768;SDS011;54569;52.018;5.584;2023-06-10T03:57:43;7.60;;;5.07;;
67768;SDS011;54569;52.018;5.584;2023-06-10T04:00:10;7.00;;;5.15;;
67768;SDS011;54569;52.018;5.584;2023-06-10T04:02:40;7.78;;;5.95;;
67768;SDS011;54569;52.018;5.584;2023-06-10T04:05:40;7.57;;;5.07;;
67768;SDS011;54569;52.018;5.584;2023-06-10T04:08:07;10.32;;;5.75;;
67768;SDS011;54569;52.018;5.584;2023-06-10T04:10:33;6.10;;;4.88;;
67768;SDS011;54569;52.018;5.584;2023-06-10T04:12:59;6.85;;;4.93;;
67768;SDS011;54569;52.018;5.584;2023-06-10T04:15:29;8.63;;;5.60;;
67768;SDS011;54569;52.018;5.584;2023-06-10T04:17:58;5.93;;;5.32;;
67768;SDS011;54569;52.018;5.584;2023-06-10T04:20:25;7.32;;;5.78;;
67768;SDS011;54569;52.018;5.584;2023-06-10T04:22:51;6.97;;;5.38;;
67768;SDS011;54569;52.018;5.584;2023-06-10T04:25:18;7.32;;;5.68;;
67768;SDS011;54569;52.018;5.584;2023-06-10T04:27:44;6.90;;;5.50;;
67768;SDS011;54569;52.018;5.584;2023-06-10T04:30:10;7.68;;;5.78;;
67768;SDS011;54569;52.018;5.584;2023-06-10T04:32:37;9.75;;;5.90;;
67768;SDS011;54569;52.018;5.584;2023-06-10T04:35:06;7.00;;;5.65;;
67768;SDS011;54569;52.018;5.584;2023-06-10T04:37:32;9.15;;;5.85;;
67768;SDS011;54569;52.018;5.584;2023-06-10T04:39:58;11.23;;;5.65;;
67768;SDS011;54569;52.018;5.584;2023-06-10T04:42:25;7.60;;;5.88;;
67768;SDS011;54569;52.018;5.584;2023-06-10T04:44:51;7.75;;;5.78;;
67768;SDS011;54569;52.018;5.584;2023-06-10T04:47:18;7.90;;;5.90;;
67768;SDS011;54569;52.018;5.584;2023-06-10T04:49:44;7.20;;;5.28;;
67768;SDS011;54569;52.018;5.584;2023-06-10T04:52:10;8.55;;;5.78;;
67768;SDS011;54569;52.018;5.584;2023-06-10T04:54:38;7.30;;;5.88;;
67768;SDS011;54569;52.018;5.584;2023-06-10T04:57:04;10.68;;;6.03;;
67768;SDS011;54569;52.018;5.584;2023-06-10T04:59:31;7.90;;;5.70;;
67768;SDS011;54569;52.018;5.584;2023-06-10T05:01:57;6.80;;;6.07;;
67768;SDS011;54569;52.018;5.584;2023-06-10T05:04:23;6.70;;;5.82;;
67768;SDS011;54569;52.018;5.584;2023-06-10T05:06:49;9.20;;;5.63;;
67768;SDS011;54569;52.018;5.584;2023-06-10T05:09:14;8.07;;;6.10;;
67768;SDS011;54569;52.018;5.584;2023-06-10T05:11:40;8.73;;;5.78;;
67768;SDS011;54569;52.018;5.584;2023-06-10T05:14:06;8.75;;;5.38;;
67768;SDS011;54569;52.018;5.584;2023-06-10T05:16:32;8.43;;;6.15;;
67768;SDS011;54569;52.018;5.584;2023-06-10T05:18:57;6.93;;;5.68;;
67768;SDS011;54569;52.018;5.584;2023-06-10T05:21:23;5.88;;;5.30;;
67768;SDS011;54569;52.018;5.584;2023-06-10T05:23:49;7.20;;;5.80;;
67768;SDS011;54569;52.018;5.584;2023-06-10T05:26:14;9.15;;;6.00;;
67768;SDS011;54569;52.018;5.584;2023-06-10T05:28:41;8.13;;;5.72;;
67768;SDS011;54569;52.018;5.584;2023-06-10T05:31:08;7.40;;;5.95;;
67768;SDS011;54569;52.018;5.584;2023-06-10T05:33:33;6.05;;;5.40;;
67768;SDS011;54569;52.018;5.584;2023-06-10T05:35:59;6.88;;;6.13;;
67768;SDS011;54569;52.018;5.584;2023-06-10T05:38:25;6.53;;;5.65;;
67768;SDS011;54569;52.018;5.584;2023-06-10T05:40:50;9.88;;;6.15;;
67768;SDS011;54569;52.018;5.584;2023-06-10T05:43:16;7.15;;;6.20;;
67768;SDS011;54569;52.018;5.584;2023-06-10T05:45:42;8.88;;;5.65;;
67768;SDS011;54569;52.018;5.584;2023-06-10T05:48:07;9.90;;;5.60;;
67768;SDS011;54569;52.018;5.584;2023-06-10T05:50:33;9.18;;;5.88;;
67768;SDS011;54569;52.018;5.584;2023-06-10T05:53:03;10.23;;;5.57;;
67768;SDS011;54569;52.018;5.584;2023-06-10T05:55:31;8.20;;;5.60;;
67768;SDS011;54569;52.018;5.584;2023-06-10T05:58:00;10.02;;;5.75;;
67768;SDS011;54569;52.018;5.584;2023-06-10T06:00:26;8.70;;;5.82;;
67768;SDS011;54569;52.018;5.584;2023-06-10T06:02:52;7.50;;;5.70;;
67768;SDS011;54569;52.018;5.584;2023-06-10T06:05:19;7.30;;;5.28;;
67768;SDS011;54569;52.018;5.584;2023-06-10T06:07:45;7.53;;;5.50;;
67768;SDS011;54569;52.018;5.584;2023-06-10T06:10:10;6.65;;;5.38;;
67768;SDS011;54569;52.018;5.584;2023-06-10T06:12:36;8.57;;;5.55;;
67768;SDS011;54569;52.018;5.584;2023-06-10T06:15:01;8.27;;;5.70;;
67768;SDS011;54569;52.018;5.584;2023-06-10T06:17:28;8.15;;;5.70;;
67768;SDS011;54569;52.018;5.584;2023-06-10T06:19:53;5.88;;;5.25;;
67768;SDS011;54569;52.018;5.584;2023-06-10T06:22:19;6.65;;;5.05;;
67768;SDS011;54569;52.018;5.584;2023-06-10T06:24:47;8.95;;;5.80;;
67768;SDS011;54569;52.018;5.584;2023-06-10T06:27:14;6.93;;;5.18;;
67768;SDS011;54569;52.018;5.584;2023-06-10T06:29:40;6.35;;;5.75;;
67768;SDS011;54569;52.018;5.584;2023-06-10T06:32:05;6.13;;;5.53;;
67768;SDS011;54569;52.018;5.584;2023-06-10T06:34:31;7.50;;;5.50;;
67768;SDS011;54569;52.018;5.584;2023-06-10T06:36:58;5.35;;;4.85;;
67768;SDS011;54569;52.018;5.584;2023-06-10T06:39:25;8.23;;;5.38;;
67768;SDS011;54569;52.018;5.584;2023-06-10T06:41:51;8.10;;;5.88;;
67768;SDS011;54569;52.018;5.584;2023-06-10T06:44:24;18.17;;;5.50;;
67768;SDS011;54569;52.018;5.584;2023-06-10T06:46:52;8.23;;;5.30;;
67768;SDS011;54569;52.018;5.584;2023-06-10T06:49:17;6.93;;;5.53;;
67768;SDS011;54569;52.018;5.584;2023-06-10T06:51:43;6.93;;;5.40;;
67768;SDS011;54569;52.018;5.584;2023-06-10T06:54:08;7.85;;;5.30;;
67768;SDS011;54569;52.018;5.584;2023-06-10T06:56:34;6.15;;;4.93;;
67768;SDS011;54569;52.018;5.584;2023-06-10T06:59:00;7.20;;;4.95;;
67768;SDS011;54569;52.018;5.584;2023-06-10T07:01:25;5.65;;;5.15;;
67768;SDS011;54569;52.018;5.584;2023-06-10T07:03:51;6.60;;;5.38;;
67768;SDS011;54569;52.018;5.584;2023-06-10T07:06:17;7.20;;;5.38;;
67768;SDS011;54569;52.018;5.584;2023-06-10T07:08:42;6.90;;;5.50;;
67768;SDS011;54569;52.018;5.584;2023-06-10T07:11:08;7.63;;;4.80;;
67768;SDS011;54569;52.018;5.584;2023-06-10T07:13:34;6.20;;;5.38;;
67768;SDS011;54569;52.018;5.584;2023-06-10T07:16:00;6.05;;;4.85;;
67768;SDS011;54569;52.018;5.584;2023-06-10T07:18:26;5.25;;;4.85;;
67768;SDS011;54569;52.018;5.584;2023-06-10T07:20:51;8.82;;;5.15;;
67768;SDS011;54569;52.018;5.584;2023-06-10T07:23:17;7.93;;;5.10;;
67768;SDS011;54569;52.018;5.584;2023-06-10T07:25:43;5.68;;;5.10;;
67768;SDS011;54569;52.018;5.584;2023-06-10T07:28:08;6.97;;;4.95;;
67768;SDS011;54569;52.018;5.584;2023-06-10T07:30:34;7.07;;;5.22;;
67768;SDS011;54569;52.018;5.584;2023-06-10T07:33:00;7.00;;;4.85;;
67768;SDS011;54569;52.018;5.584;2023-06-10T07:35:27;7.18;;;5.20;;
67768;SDS011;54569;52.018;5.584;2023-06-10T07:37:52;6.13;;;4.93;;
67768;SDS011;54569;52.018;5.584;2023-06-10T07:40:18;5.10;;;4.60;;
67768;SDS011;54569;52.018;5.584;2023-06-10T07:42:44;8.02;;;5.60;;
67768;SDS011;54569;52.018;5.584;2023-06-10T07:45:09;6.05;;;5.00;;
67768;SDS011;54569;52.018;5.584;2023-06-10T07:47:35;7.43;;;4.65;;
67768;SDS011;54569;52.018;5.584;2023-06-10T07:50:01;7.55;;;4.95;;
67768;SDS011;54569;52.018;5.584;2023-06-10T07:52:27;5.70;;;5.20;;
67768;SDS011;54569;52.018;5.584;2023-06-10T07:54:53;10.18;;;5.55;;
67768;SDS011;54569;52.018;5.584;2023-06-10T07:57:19;9.05;;;4.68;;
67768;SDS011;54569;52.018;5.584;2023-06-10T07:59:45;6.63;;;5.13;;
67768;SDS011;54569;52.018;5.584;2023-06-10T08:02:10;6.22;;;5.18;;
67768;SDS011;54569;52.018;5.584;2023-06-10T08:04:36;5.80;;;5.30;;
67768;SDS011;54569;52.018;5.584;2023-06-10T08:07:02;6.57;;;5.32;;
67768;SDS011;54569;52.018;5.584;2023-06-10T08:09:28;6.78;;;4.85;;
67768;SDS011;54569;52.018;5.584;2023-06-10T08:11:54;7.25;;;4.93;;
67768;SDS011;54569;52.018;5.584;2023-06-10T08:14:20;6.00;;;4.75;;
67768;SDS011;54569;52.018;5.584;2023-06-10T08:16:46;7.85;;;5.10;;
67768;SDS011;54569;52.018;5.584;2023-06-10T08:19:12;5.40;;;4.90;;
67768;SDS011;54569;52.018;5.584;2023-06-10T08:21:38;5.47;;;4.97;;
67768;SDS011;54569;52.018;5.584;2023-06-10T08:24:05;8.32;;;4.85;;
67768;SDS011;54569;52.018;5.584;2023-06-10T08:26:31;8.27;;;4.93;;
67768;SDS011;54569;52.018;5.584;2023-06-10T08:28:57;6.72;;;4.85;;
67768;SDS011;54569;52.018;5.584;2023-06-10T08:31:22;5.35;;;4.85;;
67768;SDS011;54569;52.018;5.584;2023-06-10T08:33:48;5.85;;;4.50;;
67768;SDS011;54569;52.018;5.584;2023-06-10T08:36:14;6.57;;;4.68;;
67768;SDS011;54569;52.018;5.584;2023-06-10T08:38:40;6.32;;;4.93;;
67768;SDS011;54569;52.018;5.584;2023-06-10T08:41:05;8.32;;;4.95;;
67768;SDS011;54569;52.018;5.584;2023-06-10T08:46:08;5.95;;;4.13;;
67768;SDS011;54569;52.018;5.584;2023-06-10T08:48:34;5.30;;;4.90;;
67768;SDS011;54569;52.018;5.584;2023-06-10T08:51:04;6.53;;;4.95;;
67768;SDS011;54569;52.018;5.584;2023-06-10T08:53:31;8.65;;;5.28;;
67768;SDS011;54569;52.018;5.584;2023-06-10T08:55:58;5.03;;;4.63;;
67768;SDS011;54569;52.018;5.584;2023-06-10T08:58:27;5.07;;;4.38;;
67768;SDS011;54569;52.018;5.584;2023-06-10T09:00:53;6.57;;;4.70;;
67768;SDS011;54569;52.018;5.584;2023-06-10T09:03:19;6.75;;;4.85;;
67768;SDS011;54569;52.018;5.584;2023-06-10T09:05:46;5.78;;;4.53;;
67768;SDS011;54569;52.018;5.584;2023-06-10T09:08:13;4.53;;;4.15;;
67768;SDS011;54569;52.018;5.584;2023-06-10T09:10:40;6.35;;;4.53;;
67768;SDS011;54569;52.018;5.584;2023-06-10T09:13:06;6.45;;;4.80;;
67768;SDS011;54569;52.018;5.584;2023-06-10T09:15:32;6.00;;;4.65;;
67768;SDS011;54569;52.018;5.584;2023-06-10T09:17:58;5.38;;;4.90;;
67768;SDS011;54569;52.018;5.584;2023-06-10T09:20:24;5.90;;;4.93;;
67768;SDS011;54569;52.018;5.584;2023-06-10T09:22:50;5.30;;;4.80;;
67768;SDS011;54569;52.018;5.584;2023-06-10T09:25:16;5.57;;;5.07;;
67768;SDS011;54569;52.018;5.584;2023-06-10T09:27:44;8.00;;;5.28;;
67768;SDS011;54569;52.018;5.584;2023-06-10T09:30:26;7.22;;;4.95;;
67768;SDS011;54569;52.018;5.584;2023-06-10T09:32:54;6.30;;;4.90;;
67768;SDS011;54569;52.018;5.584;2023-06-10T09:35:24;8.70;;;4.97;;
67768;SDS011;54569;52.018;5.584;2023-06-10T09:37:54;5.95;;;4.63;;
67768;SDS011;54569;52.018;5.584;2023-06-10T09:40:21;5.32;;;4.82;;
67768;SDS011;54569;52.018;5.584;2023-06-10T09:42:52;4.57;;;4.18;;
67768;SDS011;54569;52.018;5.584;2023-06-10T09:45:20;5.00;;;4.50;;
67768;SDS011;54569;52.018;5.584;2023-06-10T09:47:46;5.00;;;4.40;;
67768;SDS011;54569;52.018;5.584;2023-06-10T09:50:13;8.70;;;5.20;;
67768;SDS011;54569;52.018;5.584;2023-06-10T09:52:38;6.90;;;5.22;;
67768;SDS011;54569;52.018;5.584;2023-06-10T09:55:08;7.68;;;4.50;;
67768;SDS011;54569;52.018;5.584;2023-06-10T09:57:35;5.05;;;4.55;;
67768;SDS011;54569;52.018;5.584;2023-06-10T10:00:08;6.93;;;4.28;;
67768;SDS011;54569;52.018;5.584;2023-06-10T10:02:44;4.68;;;4.28;;
67768;SDS011;54569;52.018;5.584;2023-06-10T10:05:14;4.68;;;4.28;;
67768;SDS011;54569;52.018;5.584;2023-06-10T10:07:42;5.97;;;4.65;;
67768;SDS011;54569;52.018;5.584;2023-06-10T10:10:09;4.82;;;4.30;;
67768;SDS011;54569;52.018;5.584;2023-06-10T10:12:37;4.35;;;4.05;;
67768;SDS011;54569;52.018;5.584;2023-06-10T10:15:05;4.38;;;4.00;;
67768;SDS011;54569;52.018;5.584;2023-06-10T10:17:33;4.60;;;3.78;;
67768;SDS011;54569;52.018;5.584;2023-06-10T10:20:03;5.30;;;4.80;;
67768;SDS011;54569;52.018;5.584;2023-06-10T10:22:40;4.75;;;4.15;;
67768;SDS011;54569;52.018;5.584;2023-06-10T10:25:11;4.22;;;3.83;;
67768;SDS011;54569;52.018;5.584;2023-06-10T10:27:47;4.88;;;3.95;;
67768;SDS011;54569;52.018;5.584;2023-06-10T10:30:21;5.38;;;4.28;;
67768;SDS011;54569;52.018;5.584;2023-06-10T10:35:34;4.85;;;4.45;;
67768;SDS011;54569;52.018;5.584;2023-06-10T10:38:02;6.20;;;4.20;;
67768;SDS011;54569;52.018;5.584;2023-06-10T10:40:29;5.00;;;4.50;;
67768;SDS011;54569;52.018;5.584;2023-06-10T10:42:55;7.93;;;4.53;;
67768;SDS011;54569;52.018;5.584;2023-06-10T10:45:23;4.82;;;4.30;;
67768;SDS011;54569;52.018;5.584;2023-06-10T10:47:52;5.03;;;4.53;;
67768;SDS011;54569;52.018;5.584;2023-06-10T10:50:20;5.03;;;4.47;;
67768;SDS011;54569;52.018;5.584;2023-06-10T10:52:51;4.53;;;4.07;;
67768;SDS011;54569;52.018;5.584;2023-06-10T10:55:18;6.40;;;4.87;;
67768;SDS011;54569;52.018;5.584;2023-06-10T10:57:44;4.70;;;4.25;;
67768;SDS011;54569;52.018;5.584;2023-06-10T11:00:10;5.18;;;4.65;;
67768;SDS011;54569;52.018;5.584;2023-06-10T11:02:37;5.55;;;4.18;;
67768;SDS011;54569;52.018;5.584;2023-06-10T11:05:15;4.47;;;4.07;;
67768;SDS011;54569;52.018;5.584;2023-06-10T11:07:51;5.00;;;4.60;;
67768;SDS011;54569;52.018;5.584;2023-06-10T11:10:28;4.90;;;4.40;;
67768;SDS011;54569;52.018;5.584;2023-06-10T11:12:58;5.60;;;4.78;;
67768;SDS011;54569;52.018;5.584;2023-06-10T11:15:28;5.10;;;4.13;;
67768;SDS011;54569;52.018;5.584;2023-06-10T11:18:07;4.53;;;3.83;;
67768;SDS011;54569;52.018;5.584;2023-06-10T11:20:44;4.90;;;4.40;;
67768;SDS011;54569;52.018;5.584;2023-06-10T11:23:10;4.70;;;4.30;;
67768;SDS011;54569;52.018;5.584;2023-06-10T11:25:49;4.78;;;4.38;;
67768;SDS011;54569;52.018;5.584;2023-06-10T11:28:18;6.32;;;4.50;;
67768;SDS011;54569;52.018;5.584;2023-06-10T11:30:45;5.40;;;4.90;;
67768;SDS011;54569;52.018;5.584;2023-06-10T11:33:16;5.30;;;4.53;;
67768;SDS011;54569;52.018;5.584;2023-06-10T11:35:42;5.13;;;4.63;;
67768;SDS011;54569;52.018;5.584;2023-06-10T11:38:08;4.50;;;4.10;;
67768;SDS011;54569;52.018;5.584;2023-06-10T11:40:34;4.80;;;4.35;;
67768;SDS011;54569;52.018;5.584;2023-06-10T11:43:03;4.85;;;4.40;;
67768;SDS011;54569;52.018;5.584;2023-06-10T11:45:29;4.72;;;4.35;;
67768;SDS011;54569;52.018;5.584;2023-06-10T11:47:55;5.38;;;4.82;;
67768;SDS011;54569;52.018;5.584;2023-06-10T11:50:31;5.10;;;4.60;;
67768;SDS011;54569;52.018;5.584;2023-06-10T11:52:58;6.50;;;4.82;;
67768;SDS011;54569;52.018;5.584;2023-06-10T11:55:25;4.80;;;4.40;;
67768;SDS011;54569;52.018;5.584;2023-06-10T11:58:17;4.53;;;4.13;;
67768;SDS011;54569;52.018;5.584;2023-06-10T12:03:18;5.05;;;3.97;;
67768;SDS011;54569;52.018;5.584;2023-06-10T12:06:00;5.68;;;4.50;;
67768;SDS011;54569;52.018;5.584;2023-06-10T12:08:29;6.60;;;4.60;;
67768;SDS011;54569;52.018;5.584;2023-06-10T12:10:55;4.38;;;3.97;;
67768;SDS011;54569;52.018;5.584;2023-06-10T12:13:22;4.93;;;4.43;;
67768;SDS011;54569;52.018;5.584;2023-06-10T12:15:51;4.63;;;4.22;;
67768;SDS011;54569;52.018;5.584;2023-06-10T12:18:20;5.10;;;4.60;;
67768;SDS011;54569;52.018;5.584;2023-06-10T12:20:47;4.40;;;4.00;;
67768;SDS011;54569;52.018;5.584;2023-06-10T12:23:14;4.85;;;4.45;;
67768;SDS011;54569;52.018;5.584;2023-06-10T12:25:51;6.20;;;4.20;;
67768;SDS011;54569;52.018;5.584;2023-06-10T12:28:22;5.95;;;4.80;;
67768;SDS011;54569;52.018;5.584;2023-06-10T12:30:49;6.25;;;4.40;;
67768;SDS011;54569;52.018;5.584;2023-06-10T12:33:21;5.90;;;4.25;;
67768;SDS011;54569;52.018;5.584;2023-06-10T12:35:51;5.63;;;4.40;;
67768;SDS011;54569;52.018;5.584;2023-06-10T12:38:24;7.10;;;4.78;;
67768;SDS011;54569;52.018;5.584;2023-06-10T12:40:53;5.03;;;4.53;;
67768;SDS011;54569;52.018;5.584;2023-06-10T12:43:24;5.15;;;4.75;;
67768;SDS011;54569;52.018;5.584;2023-06-10T12:45:51;5.07;;;4.68;;
67768;SDS011;54569;52.018;5.584;2023-06-10T12:48:23;5.80;;;5.22;;
67768;SDS011;54569;52.018;5.584;2023-06-10T12:50:53;5.25;;;4.82;;
67768;SDS011;54569;52.018;5.584;2023-06-10T12:53:20;5.28;;;4.70;;
67768;SDS011;54569;52.018;5.584;2023-06-10T12:55:48;5.43;;;4.93;;
67768;SDS011;54569;52.018;5.584;2023-06-10T12:58:14;6.65;;;4.50;;
67768;SDS011;54569;52.018;5.584;2023-06-10T13:00:40;5.25;;;4.85;;
67768;SDS011;54569;52.018;5.584;2023-06-10T13:03:07;5.40;;;4.88;;
67768;SDS011;54569;52.018;5.584;2023-06-10T13:05:34;5.28;;;4.40;;
67768;SDS011;54569;52.018;5.584;2023-06-10T13:08:03;5.25;;;4.40;;
67768;SDS011;54569;52.018;5.584;2023-06-10T13:10:30;5.80;;;4.78;;
67768;SDS011;54569;52.018;5.584;2023-06-10T13:12:55;5.25;;;4.70;;
67768;SDS011;54569;52.018;5.584;2023-06-10T13:15:21;4.60;;;4.25;;
67768;SDS011;54569;52.018;5.584;2023-06-10T13:17:47;7.53;;;4.82;;
67768;SDS011;54569;52.018;5.584;2023-06-10T13:20:14;5.13;;;4.63;;
67768;SDS011;54569;52.018;5.584;2023-06-10T13:22:41;5.28;;;4.80;;
67768;SDS011;54569;52.018;5.584;2023-06-10T13:25:08;5.30;;;4.80;;
67768;SDS011;54569;52.018;5.584;2023-06-10T13:27:34;5.05;;;4.43;;
67768;SDS011;54569;52.018;5.584;2023-06-10T13:30:03;5.45;;;4.70;;
67768;SDS011;54569;52.018;5.584;2023-06-10T13:32:29;5.07;;;4.63;;
67768;SDS011;54569;52.018;5.584;2023-06-10T13:34:56;5.55;;;4.63;;
67768;SDS011;54569;52.018;5.584;2023-06-10T13:37:22;7.68;;;4.97;;
67768;SDS011;54569;52.018;5.584;2023-06-10T13:39:48;5.38;;;4.63;;
67768;SDS011;54569;52.018;5.584;2023-06-10T13:42:18;4.90;;;4.50;;
67768;SDS011;54569;52.018;5.584;2023-06-10T13:44:47;4.88;;;4.43;;
67768;SDS011;54569;52.018;5.584;2023-06-10T13:47:14;6.43;;;4.03;;
67768;SDS011;54569;52.018;5.584;2023-06-10T13:49:40;4.60;;;4.20;;
67768;SDS011;54569;52.018;5.584;2023-06-10T13:52:06;4.82;;;4.30;;
67768;SDS011;54569;52.018;5.584;2023-06-10T13:54:32;5.00;;;4.55;;
67768;SDS011;54569;52.018;5.584;2023-06-10T13:56:58;6.78;;;4.68;;
67768;SDS011;54569;52.018;5.584;2023-06-10T13:59:25;5.15;;;4.68;;
67768;SDS011;54569;52.018;5.584;2023-06-10T14:01:51;5.07;;;4.43;;
67768;SDS011;54569;52.018;5.584;2023-06-10T14:04:16;6.10;;;4.20;;
67768;SDS011;54569;52.018;5.584;2023-06-10T14:06:42;4.60;;;4.20;;
67768;SDS011;54569;52.018;5.584;2023-06-10T14:09:08;5.00;;;4.45;;
67768;SDS011;54569;52.018;5.584;2023-06-10T14:11:34;4.60;;;4.20;;
67768;SDS011;54569;52.018;5.584;2023-06-10T14:14:00;4.78;;;4.38;;
67768;SDS011;54569;52.018;5.584;2023-06-10T14:16:26;4.70;;;4.30;;
67768;SDS011;54569;52.018;5.584;2023-06-10T14:18:52;6.65;;;4.30;;
67768;SDS011;54569;52.018;5.584;2023-06-10T14:21:17;5.47;;;4.88;;
67768;SDS011;54569;52.018;5.584;2023-06-10T14:23:43;6.18;;;4.43;;
67768;SDS011;54569;52.018;5.584;2023-06-10T14:26:10;5.57;;;5.03;;
67768;SDS011;54569;52.018;5.584;2023-06-10T14:28:38;5.00;;;4.13;;
67768;SDS011;54569;52.018;5.584;2023-06-10T14:31:04;4.32;;;4.03;;
67768;SDS011;54569;52.018;5.584;2023-06-10T14:33:30;4.40;;;4.03;;
67768;SDS011;54569;52.018;5.584;2023-06-10T14:35:56;7.15;;;4.80;;
67768;SDS011;54569;52.018;5.584;2023-06-10T14:38:22;5.20;;;4.70;;
67768;SDS011;54569;52.018;5.584;2023-06-10T14:40:48;5.00;;;4.50;;
67768;SDS011;54569;52.018;5.584;2023-06-10T14:43:14;6.55;;;4.40;;
67768;SDS011;54569;52.018;5.584;2023-06-10T14:45:40;5.43;;;4.55;;
67768;SDS011;54569;52.018;5.584;2023-06-10T14:48:06;5.00;;;4.47;;
67768;SDS011;54569;52.018;5.584;2023-06-10T14:50:34;4.80;;;4.40;;
67768;SDS011;54569;52.018;5.584;2023-06-10T14:53:00;4.55;;;4.15;;
67768;SDS011;54569;52.018;5.584;2023-06-10T14:55:26;5.18;;;4.22;;
67768;SDS011;54569;52.018;5.584;2023-06-10T14:57:51;4.75;;;4.25;;
67768;SDS011;54569;52.018;5.584;2023-06-10T15:00:17;4.82;;;4.40;;